Time;durP1;ratioP1;P1;durP2;ratioP2;P2;SDS_P1;SDS_P2;PMS_P1;PMS_P2;Temp;Humidity;BMP_temperature;BMP_pressure;BME280_temperature;BME280_humidity;BME280_pressure;Samples;Min_cycle;Max_cycle;Signal;HPM_P1;HPM_P2
2023/09/02 00:02:16;;;;;;;8.77;6.50;;;19.40;99.90;;;;;;5044146;28;21064;-73
2023/09/02 00:04:41;;;;;;;10.48;6.13;;;19.40;99.90;;;;;;5043871;28;20033;-73
2023/09/02 00:07:07;;;;;;;9.15;5.72;;;19.40;99.90;;;;;;5043915;28;20044;-73
2023/09/02 00:09:33;;;;;;;8.10;6.10;;;19.30;99.90;;;;;;5043660;28;20730;-73
2023/09/02 00:11:58;;;;;;;11.35;5.88;;;19.30;99.90;;;;;;5046583;28;20071;-73
2023/09/02 00:14:24;;;;;;;9.02;5.72;;;19.30;99.90;;;;;;5043751;28;20079;-73
2023/09/02 00:16:49;;;;;;;11.18;5.47;;;19.30;99.90;;;;;;5043941;28;20013;-73
2023/09/02 00:19:15;;;;;;;15.32;6.25;;;19.30;99.90;;;;;;5046048;28;20114;-73
2023/09/02 00:21:41;;;;;;;10.43;5.95;;;19.30;99.90;;;;;;5048082;28;20076;-73
2023/09/02 00:24:06;;;;;;;11.88;5.05;;;19.20;99.90;;;;;;5036853;28;20440;-73
2023/09/02 00:26:33;;;;;;;11.13;5.65;;;19.20;99.90;;;;;;5044518;28;20083;-73
2023/09/02 00:29:00;;;;;;;14.40;5.75;;;19.20;99.90;;;;;;5043818;28;20040;-73
2023/09/02 00:31:26;;;;;;;14.30;5.85;;;19.30;99.90;;;;;;5046484;28;20052;-73
2023/09/02 00:33:52;;;;;;;9.93;6.10;;;19.20;99.90;;;;;;5044777;28;20147;-74
2023/09/02 00:36:18;;;;;;;11.82;6.05;;;19.20;99.90;;;;;;5046733;28;20025;-74
2023/09/02 00:38:44;;;;;;;9.07;5.40;;;19.20;99.90;;;;;;5042493;28;20087;-74
2023/09/02 00:41:13;;;;;;;11.63;5.35;;;19.20;99.90;;;;;;5046958;28;20021;-73
2023/09/02 00:43:40;;;;;;;9.82;5.38;;;19.20;99.90;;;;;;5049177;28;20075;-73
2023/09/02 00:46:08;;;;;;;10.98;6.28;;;19.20;99.90;;;;;;5045445;28;20217;-73
2023/09/02 00:48:34;;;;;;;14.75;6.80;;;19.10;99.90;;;;;;5037085;28;20481;-73
2023/09/02 00:50:59;;;;;;;8.30;6.38;;;19.00;99.90;;;;;;5043447;28;20120;-73
2023/09/02 00:53:25;;;;;;;12.00;6.40;;;19.00;99.90;;;;;;5038771;28;20104;-74
2023/09/02 00:55:52;;;;;;;14.55;6.35;;;19.00;99.90;;;;;;5041212;28;20053;-73
2023/09/02 00:58:19;;;;;;;11.50;5.80;;;19.00;99.90;;;;;;5047018;28;20496;-73
2023/09/02 01:00:45;;;;;;;12.27;6.00;;;19.00;99.90;;;;;;5048662;28;20104;-74
2023/09/02 01:03:11;;;;;;;8.68;5.03;;;19.00;99.90;;;;;;5043752;28;20300;-73
2023/09/02 01:05:37;;;;;;;10.15;5.95;;;19.10;99.90;;;;;;5045950;28;20079;-73
2023/09/02 01:08:06;;;;;;;11.13;4.93;;;19.00;99.90;;;;;;5044358;28;20140;-73
2023/09/02 01:10:37;;;;;;;9.77;5.72;;;19.00;99.90;;;;;;5042876;28;20075;-73
2023/09/02 01:13:03;;;;;;;11.88;4.90;;;19.00;99.90;;;;;;5043837;28;20080;-73
2023/09/02 01:15:32;;;;;;;7.72;4.43;;;18.90;99.90;;;;;;5046771;28;20059;-74
2023/09/02 01:17:57;;;;;;;11.30;5.20;;;18.90;99.90;;;;;;5047501;28;20100;-74
2023/09/02 01:20:27;;;;;;;15.05;5.90;;;18.90;99.90;;;;;;5039100;28;20141;-73
2023/09/02 01:23:31;;;;;;;10.13;5.35;;;18.90;99.90;;;;;;5044519;28;20017;-74
2023/09/02 01:26:27;;;;;;;8.32;5.00;;;18.80;99.90;;;;;;5034119;28;20057;-74
2023/09/02 01:28:58;;;;;;;9.60;4.70;;;18.80;99.90;;;;;;5039914;28;20462;-73
2023/09/02 01:31:25;;;;;;;14.75;5.82;;;18.80;99.90;;;;;;5040834;28;20029;-74
2023/09/02 01:33:53;;;;;;;9.75;5.65;;;18.80;99.90;;;;;;5045530;28;20636;-73
2023/09/02 01:36:21;;;;;;;13.70;5.65;;;18.80;99.90;;;;;;5038311;28;20397;-73
2023/09/02 01:38:48;;;;;;;10.65;5.00;;;18.80;99.90;;;;;;5044433;28;20039;-74
2023/09/02 01:41:15;;;;;;;12.95;5.70;;;18.80;99.90;;;;;;5036946;28;20028;-73
2023/09/02 01:43:44;;;;;;;11.07;5.95;;;18.70;99.90;;;;;;5043147;28;20025;-73
2023/09/02 01:46:10;;;;;;;12.20;6.05;;;18.70;99.90;;;;;;5045710;28;20028;-74
2023/09/02 01:48:37;;;;;;;10.77;5.55;;;18.70;99.90;;;;;;5046745;28;20113;-73
2023/09/02 01:51:03;;;;;;;8.05;4.95;;;18.70;99.90;;;;;;5038813;28;20032;-73
2023/09/02 01:53:29;;;;;;;12.10;5.38;;;18.70;99.90;;;;;;5040504;28;20029;-73
2023/09/02 01:55:56;;;;;;;13.60;4.68;;;18.70;99.90;;;;;;5045347;28;20029;-73
2023/09/02 01:58:22;;;;;;;12.23;4.93;;;18.60;99.90;;;;;;5037046;28;20100;-73
2023/09/02 02:00:48;;;;;;;13.50;5.47;;;18.70;99.90;;;;;;5044050;28;20136;-73
2023/09/02 02:03:25;;;;;;;16.38;5.13;;;18.70;99.90;;;;;;5042763;28;20379;-73
2023/09/02 02:05:53;;;;;;;11.65;5.47;;;18.60;99.90;;;;;;5042601;28;20033;-73
2023/09/02 02:08:25;;;;;;;9.20;5.25;;;18.70;99.90;;;;;;5049692;28;20021;-73
2023/09/02 02:10:53;;;;;;;9.65;5.05;;;18.60;99.90;;;;;;5044208;28;20061;-73
2023/09/02 02:13:19;;;;;;;8.65;5.97;;;18.70;99.90;;;;;;5041213;28;20399;-73
2023/09/02 02:15:44;;;;;;;10.18;5.30;;;18.70;99.90;;;;;;5048526;28;20075;-73
2023/09/02 02:18:10;;;;;;;11.05;5.57;;;18.60;99.90;;;;;;5042000;28;20029;-73
2023/09/02 02:20:50;;;;;;;14.43;5.78;;;18.60;99.90;;;;;;5048062;28;20017;-73
2023/09/02 02:23:15;;;;;;;10.90;5.45;;;18.60;99.90;;;;;;5050328;28;20032;-73
2023/09/02 02:25:41;;;;;;;10.52;5.72;;;18.60;99.90;;;;;;5048203;28;20025;-73
2023/09/02 02:28:07;;;;;;;23.27;6.43;;;18.60;99.90;;;;;;5046266;28;20405;-73
2023/09/02 02:30:32;;;;;;;9.95;4.63;;;18.70;99.90;;;;;;5045684;28;20416;-73
2023/09/02 02:32:59;;;;;;;9.27;5.47;;;18.60;99.90;;;;;;5048047;28;20067;-73
2023/09/02 02:35:30;;;;;;;9.23;5.50;;;18.60;99.90;;;;;;5038897;28;20032;-73
2023/09/02 02:37:58;;;;;;;7.60;4.75;;;18.60;99.90;;;;;;5042222;28;20451;-73
2023/09/02 02:40:23;;;;;;;6.55;4.72;;;18.60;99.90;;;;;;5040286;28;20082;-73
2023/09/02 02:42:49;;;;;;;11.68;4.80;;;18.60;99.90;;;;;;5047246;28;20038;-73
2023/09/02 02:45:15;;;;;;;5.63;4.32;;;18.60;99.90;;;;;;5046956;28;20034;-73
2023/09/02 02:47:40;;;;;;;10.25;5.18;;;18.50;99.90;;;;;;5044173;28;20024;-73
2023/09/02 02:50:06;;;;;;;6.68;4.32;;;18.50;99.90;;;;;;5047251;28;20587;-73
2023/09/02 02:52:32;;;;;;;12.18;5.05;;;18.50;99.90;;;;;;5044967;28;20017;-73
2023/09/02 02:54:57;;;;;;;7.47;4.60;;;18.50;99.90;;;;;;5045290;28;20484;-74
2023/09/02 02:57:23;;;;;;;12.50;4.82;;;18.50;99.90;;;;;;5045293;28;20039;-73
2023/09/02 02:59:51;;;;;;;11.60;4.63;;;18.50;99.90;;;;;;5044274;28;20065;-73
2023/09/02 03:02:16;;;;;;;10.90;5.75;;;18.40;99.90;;;;;;5046204;28;20580;-73
2023/09/02 03:04:47;;;;;;;7.13;3.83;;;18.40;99.90;;;;;;5044449;28;20037;-73
2023/09/02 03:07:16;;;;;;;7.75;4.82;;;18.40;99.90;;;;;;5046247;28;20060;-73
2023/09/02 03:09:42;;;;;;;8.35;4.28;;;18.40;99.90;;;;;;5048237;28;20104;-73
2023/09/02 03:12:07;;;;;;;10.27;3.80;;;18.30;99.90;;;;;;5049159;28;20155;-73
2023/09/02 03:14:33;;;;;;;9.88;3.80;;;18.40;99.90;;;;;;5045328;28;20021;-73
2023/09/02 03:16:59;;;;;;;6.40;3.85;;;18.40;99.90;;;;;;5039038;28;20026;-73
2023/09/02 03:19:25;;;;;;;10.25;5.35;;;18.40;99.90;;;;;;5043384;28;20308;-73
2023/09/02 03:21:51;;;;;;;14.95;5.68;;;18.40;99.90;;;;;;5047606;28;20067;-73
2023/09/02 03:24:17;;;;;;;9.25;5.15;;;18.30;99.90;;;;;;5042130;28;20123;-73
2023/09/02 03:26:42;;;;;;;10.05;5.07;;;18.30;99.90;;;;;;5048101;28;20437;-73
2023/09/02 03:29:08;;;;;;;8.73;5.60;;;18.20;99.90;;;;;;5041122;28;20474;-73
2023/09/02 03:31:34;;;;;;;9.73;4.80;;;18.30;99.90;;;;;;5044863;28;20025;-73
2023/09/02 03:33:59;;;;;;;6.68;4.75;;;18.30;99.90;;;;;;5038410;28;20029;-73
2023/09/02 03:36:25;;;;;;;9.35;4.53;;;18.20;99.90;;;;;;5043628;28;20389;-73
2023/09/02 03:38:51;;;;;;;16.45;5.03;;;18.20;99.90;;;;;;5045740;28;20029;-74
2023/09/02 03:41:20;;;;;;;15.77;4.90;;;18.20;99.90;;;;;;5045695;28;20037;-74
2023/09/02 03:43:46;;;;;;;11.43;5.13;;;18.20;99.90;;;;;;5046097;28;20409;-74
2023/09/02 03:46:13;;;;;;;14.25;4.50;;;18.20;99.90;;;;;;5043019;28;20509;-73
2023/09/02 03:48:39;;;;;;;8.98;4.75;;;18.20;99.90;;;;;;5046247;28;20543;-73
2023/09/02 03:51:12;;;;;;;11.73;4.70;;;18.10;99.90;;;;;;5040222;28;20037;-73
2023/09/02 03:53:38;;;;;;;14.02;4.47;;;18.10;99.90;;;;;;5042977;28;20091;-74
2023/09/02 03:56:04;;;;;;;8.45;4.35;;;18.10;99.90;;;;;;5042440;28;20486;-74
2023/09/02 03:58:30;;;;;;;10.32;3.95;;;18.10;99.90;;;;;;5045449;28;20031;-74
2023/09/02 04:00:57;;;;;;;8.60;4.30;;;18.10;99.90;;;;;;5040502;28;20068;-74
2023/09/02 04:03:25;;;;;;;12.32;4.07;;;18.10;99.90;;;;;;5043814;28;20377;-74
2023/09/02 04:05:51;;;;;;;8.77;4.40;;;18.10;99.90;;;;;;5046624;28;20036;-75
2023/09/02 04:08:22;;;;;;;15.68;4.53;;;18.10;99.90;;;;;;5045848;28;20070;-75
2023/09/02 04:10:52;;;;;;;8.35;4.60;;;18.10;99.90;;;;;;5044801;28;20029;-75
2023/09/02 04:13:25;;;;;;;7.35;4.45;;;18.00;99.90;;;;;;5040715;28;20104;-74
2023/09/02 04:15:57;;;;;;;10.80;3.95;;;18.00;99.90;;;;;;5042277;28;20021;-74
2023/09/02 04:18:23;;;;;;;10.18;4.97;;;18.00;99.90;;;;;;5042332;28;20335;-74
2023/09/02 04:20:49;;;;;;;11.20;4.50;;;18.00;99.90;;;;;;5048923;28;20021;-74
2023/09/02 04:23:15;;;;;;;19.70;5.03;;;18.00;99.90;;;;;;5049043;28;20032;-74
2023/09/02 04:25:49;;;;;;;13.85;4.55;;;17.90;99.90;;;;;;5041265;28;20106;-74
2023/09/02 04:28:15;;;;;;;10.80;4.22;;;17.90;99.90;;;;;;5042078;28;20039;-74
2023/09/02 04:30:42;;;;;;;5.50;4.95;;;17.80;99.90;;;;;;5041708;28;20036;-74
2023/09/02 04:33:08;;;;;;;15.30;4.75;;;17.80;99.90;;;;;;5042495;28;20053;-74
2023/09/02 04:35:38;;;;;;;13.65;4.60;;;17.90;99.90;;;;;;5037425;28;20025;-74
2023/09/02 04:38:05;;;;;;;18.42;4.15;;;17.80;99.90;;;;;;5041251;28;20025;-74
2023/09/02 04:40:31;;;;;;;18.08;4.88;;;17.80;99.90;;;;;;5044430;28;20033;-74
2023/09/02 04:42:57;;;;;;;18.02;4.40;;;17.80;99.90;;;;;;5040686;28;20030;-74
2023/09/02 04:45:23;;;;;;;10.85;4.30;;;17.70;99.90;;;;;;5046691;28;20398;-74
2023/09/02 04:47:49;;;;;;;12.32;5.32;;;17.70;99.90;;;;;;5043266;28;20023;-74
2023/09/02 04:50:15;;;;;;;14.98;5.03;;;17.70;99.90;;;;;;5041211;28;20033;-74
2023/09/02 04:52:44;;;;;;;12.00;4.60;;;17.70;99.90;;;;;;5042840;28;20140;-74
2023/09/02 04:55:10;;;;;;;16.25;4.30;;;17.70;99.90;;;;;;5038383;28;20029;-74
2023/09/02 04:57:36;;;;;;;14.55;4.40;;;17.70;99.90;;;;;;5045030;28;20413;-74
2023/09/02 05:00:02;;;;;;;13.15;4.60;;;17.70;99.90;;;;;;5047759;28;20507;-73
2023/09/02 05:02:28;;;;;;;8.55;4.55;;;17.70;99.90;;;;;;5041128;28;20033;-74
2023/09/02 05:04:53;;;;;;;17.08;5.13;;;17.70;99.90;;;;;;5039647;28;20029;-74
2023/09/02 05:07:19;;;;;;;11.20;4.25;;;17.70;99.90;;;;;;5048207;28;20363;-74
2023/09/02 05:09:45;;;;;;;21.63;5.45;;;17.70;99.90;;;;;;5043608;28;20047;-74
2023/09/02 05:12:11;;;;;;;10.07;5.25;;;17.70;99.90;;;;;;5036707;28;20028;-74
2023/09/02 05:14:39;;;;;;;10.45;4.55;;;17.70;99.90;;;;;;5041457;28;20044;-74
2023/09/02 05:17:04;;;;;;;9.75;5.00;;;17.70;99.90;;;;;;5036761;28;20574;-74
2023/09/02 05:19:30;;;;;;;9.23;5.10;;;17.70;99.90;;;;;;5037592;28;20037;-74
2023/09/02 05:21:57;;;;;;;12.68;5.07;;;17.70;99.90;;;;;;5046474;28;20017;-74
2023/09/02 05:24:23;;;;;;;6.60;4.72;;;17.60;99.90;;;;;;5041620;28;20041;-74
2023/09/02 05:26:49;;;;;;;10.52;4.93;;;17.60;99.90;;;;;;5045286;28;20034;-74
2023/09/02 05:29:15;;;;;;;10.18;4.75;;;17.60;99.90;;;;;;5045983;28;20021;-74
2023/09/02 05:31:40;;;;;;;10.80;6.03;;;17.60;99.90;;;;;;5043687;28;20086;-74
2023/09/02 05:34:06;;;;;;;10.57;5.60;;;17.60;99.90;;;;;;5039224;28;20030;-74
2023/09/02 05:36:32;;;;;;;11.93;6.60;;;17.70;99.90;;;;;;5045823;28;20455;-74
2023/09/02 05:38:57;;;;;;;8.73;5.72;;;17.60;99.90;;;;;;5038219;28;20021;-74
2023/09/02 05:41:28;;;;;;;12.57;7.47;;;17.60;99.90;;;;;;5043287;28;20104;-74
2023/09/02 05:43:54;;;;;;;15.48;7.10;;;17.60;99.90;;;;;;5037466;28;20083;-74
2023/09/02 05:46:19;;;;;;;9.77;5.82;;;17.70;99.90;;;;;;5043082;28;20553;-74
2023/09/02 05:48:45;;;;;;;11.43;5.50;;;17.60;99.90;;;;;;5038672;28;20109;-74
2023/09/02 05:51:11;;;;;;;10.55;5.00;;;17.60;99.90;;;;;;5040248;28;20092;-74
2023/09/02 05:53:36;;;;;;;11.52;4.78;;;17.60;99.90;;;;;;5041968;28;20096;-74
2023/09/02 05:56:02;;;;;;;11.23;4.93;;;17.60;99.90;;;;;;5053121;28;20376;-74
2023/09/02 05:58:28;;;;;;;15.07;5.40;;;17.70;99.90;;;;;;5043376;28;20115;-75
2023/09/02 06:00:54;;;;;;;11.57;5.90;;;17.80;99.90;;;;;;5047615;28;20033;-74
2023/09/02 06:03:19;;;;;;;8.60;5.25;;;17.80;99.90;;;;;;5042737;28;20024;-74
2023/09/02 06:05:45;;;;;;;10.68;6.18;;;17.80;99.90;;;;;;5044502;28;20029;-74
2023/09/02 06:08:10;;;;;;;8.98;5.07;;;17.90;99.90;;;;;;5041262;28;20025;-74
2023/09/02 06:10:37;;;;;;;10.90;5.50;;;17.90;99.90;;;;;;5046874;28;20428;-73
2023/09/02 06:13:02;;;;;;;15.25;6.30;;;17.90;99.90;;;;;;5041742;28;20017;-74
2023/09/02 06:15:28;;;;;;;12.82;5.60;;;18.00;99.90;;;;;;5046078;28;20029;-73
2023/09/02 06:17:54;;;;;;;11.63;5.22;;;18.00;99.90;;;;;;5049925;28;20032;-73
2023/09/02 06:20:22;;;;;;;10.30;5.45;;;18.10;99.90;;;;;;5042506;28;20029;-73
2023/09/02 06:22:48;;;;;;;9.35;6.03;;;18.10;99.90;;;;;;5043996;28;20017;-74
2023/09/02 06:25:14;;;;;;;9.95;5.40;;;18.10;99.90;;;;;;5045482;28;20033;-73
2023/09/02 06:27:39;;;;;;;7.65;6.05;;;18.10;99.90;;;;;;5046271;28;20030;-73
2023/09/02 06:30:06;;;;;;;10.65;5.97;;;18.10;99.90;;;;;;5053032;28;20466;-73
2023/09/02 06:32:33;;;;;;;8.30;6.13;;;18.20;99.90;;;;;;5049322;28;20025;-73
2023/09/02 06:34:58;;;;;;;12.40;5.90;;;18.30;99.90;;;;;;5048477;28;20028;-73
2023/09/02 06:37:28;;;;;;;12.73;6.25;;;18.30;99.90;;;;;;5041728;28;20425;-73
2023/09/02 06:39:54;;;;;;;12.60;6.18;;;18.30;99.90;;;;;;5043237;28;20086;-73
2023/09/02 06:42:20;;;;;;;14.07;6.18;;;18.40;99.90;;;;;;5044330;28;20517;-73
2023/09/02 06:44:47;;;;;;;14.02;6.15;;;18.40;99.90;;;;;;5046143;28;20448;-73
2023/09/02 06:47:15;;;;;;;13.75;6.18;;;18.40;99.90;;;;;;5043565;28;20112;-73
2023/09/02 06:49:41;;;;;;;13.18;5.35;;;18.40;99.90;;;;;;5045620;28;20607;-73
2023/09/02 06:52:07;;;;;;;8.05;5.13;;;18.40;99.90;;;;;;5041386;28;20033;-73
2023/09/02 06:54:36;;;;;;;16.73;5.88;;;18.40;99.90;;;;;;5051969;28;20100;-73
2023/09/02 06:57:03;;;;;;;19.80;6.38;;;18.50;99.90;;;;;;5043488;28;20025;-73
2023/09/02 06:59:29;;;;;;;14.45;7.00;;;18.50;99.90;;;;;;5047852;28;20453;-73
2023/09/02 07:01:55;;;;;;;24.27;7.70;;;18.50;99.90;;;;;;5042027;28;20025;-73
2023/09/02 07:04:20;;;;;;;16.30;7.15;;;18.60;99.90;;;;;;5044695;28;20029;-73
2023/09/02 07:06:46;;;;;;;16.30;9.65;;;18.60;99.90;;;;;;5043338;28;20500;-73
2023/09/02 07:09:12;;;;;;;11.70;9.30;;;18.70;99.90;;;;;;5042231;28;20032;-74
2023/09/02 07:11:37;;;;;;;21.20;12.05;;;18.80;99.90;;;;;;5047271;28;20025;-73
2023/09/02 07:14:03;;;;;;;18.02;10.60;;;18.80;99.90;;;;;;5042825;28;20125;-73
2023/09/02 07:16:28;;;;;;;14.68;8.35;;;18.80;99.90;;;;;;5045652;28;20029;-73
2023/09/02 07:18:54;;;;;;;16.30;9.05;;;18.90;99.90;;;;;;5051423;28;20025;-73
2023/09/02 07:21:23;;;;;;;17.95;8.82;;;19.00;99.90;;;;;;5052441;28;20448;-73
2023/09/02 07:23:50;;;;;;;16.92;7.20;;;18.90;99.90;;;;;;5049188;28;20118;-75
2023/09/02 07:26:16;;;;;;;12.80;7.47;;;18.80;99.90;;;;;;5042580;28;20022;-73
2023/09/02 07:28:42;;;;;;;17.10;8.23;;;18.90;99.90;;;;;;5043970;28;20438;-73
2023/09/02 07:31:09;;;;;;;12.80;7.78;;;18.90;99.90;;;;;;5049861;28;20106;-73
2023/09/02 07:33:34;;;;;;;18.42;10.77;;;19.00;99.90;;;;;;5040779;28;20018;-73
2023/09/02 07:36:13;;;;;;;12.13;7.72;;;19.00;99.90;;;;;;5042387;28;20032;-73
2023/09/02 07:38:40;;;;;;;14.82;7.03;;;19.00;99.90;;;;;;5046033;28;20074;-73
2023/09/02 07:41:06;;;;;;;12.70;7.60;;;19.10;99.90;;;;;;5039375;28;20057;-73
2023/09/02 07:43:32;;;;;;;17.58;7.85;;;19.20;99.90;;;;;;5051628;28;20021;-73
2023/09/02 07:45:58;;;;;;;14.82;8.32;;;19.20;99.90;;;;;;5045035;28;20090;-73
2023/09/02 07:48:24;;;;;;;11.50;8.02;;;19.30;99.90;;;;;;5046444;28;20014;-73
2023/09/02 07:50:50;;;;;;;12.48;6.90;;;19.30;99.90;;;;;;5043283;28;20548;-73
2023/09/02 07:53:16;;;;;;;15.35;6.57;;;19.30;99.90;;;;;;5041710;28;20538;-74
2023/09/02 07:55:41;;;;;;;12.85;7.55;;;19.40;99.90;;;;;;5042256;28;20108;-74
2023/09/02 07:58:07;;;;;;;18.75;9.45;;;19.40;99.90;;;;;;5036806;28;20064;-73
2023/09/02 08:00:34;;;;;;;18.13;8.98;;;19.40;99.90;;;;;;5044800;28;20025;-74
2023/09/02 08:03:00;;;;;;;18.45;9.18;;;19.50;99.90;;;;;;5043132;28;20431;-73
2023/09/02 08:05:25;;;;;;;24.73;10.82;;;19.50;99.90;;;;;;5043877;28;20033;-73
2023/09/02 08:07:51;;;;;;;14.30;9.10;;;19.60;99.90;;;;;;5041192;28;20033;-72
2023/09/02 08:10:17;;;;;;;18.52;10.07;;;19.70;99.90;;;;;;5039972;28;20410;-72
2023/09/02 08:12:43;;;;;;;16.15;10.38;;;19.70;99.90;;;;;;5042412;28;20118;-74
2023/09/02 08:15:12;;;;;;;11.45;9.85;;;19.80;99.90;;;;;;5047930;28;20033;-73
2023/09/02 08:17:40;;;;;;;10.15;8.65;;;19.90;99.90;;;;;;5040178;28;20488;-73
2023/09/02 08:20:06;;;;;;;10.70;8.05;;;19.90;99.90;;;;;;5043925;28;20051;-74
2023/09/02 08:22:33;;;;;;;9.35;8.18;;;19.90;99.90;;;;;;5039431;28;20580;-73
2023/09/02 08:24:59;;;;;;;10.93;7.75;;;19.90;99.90;;;;;;5043841;28;20013;-74
2023/09/02 08:27:26;;;;;;;13.45;8.85;;;20.00;99.90;;;;;;5049294;28;20061;-73
2023/09/02 08:29:52;;;;;;;9.73;8.68;;;20.00;99.90;;;;;;5043137;28;20477;-74
2023/09/02 08:32:18;;;;;;;13.07;8.90;;;20.00;99.90;;;;;;5049508;28;20112;-74
2023/09/02 08:34:44;;;;;;;11.35;8.90;;;20.10;99.90;;;;;;5046024;28;20588;-74
2023/09/02 08:37:09;;;;;;;9.20;8.13;;;20.10;99.90;;;;;;5042763;28;20040;-74
2023/09/02 08:39:35;;;;;;;11.13;8.18;;;20.20;99.90;;;;;;5042746;28;20020;-74
2023/09/02 08:42:01;;;;;;;11.60;7.63;;;20.30;99.90;;;;;;5045032;28;20030;-74
2023/09/02 08:44:28;;;;;;;9.88;8.60;;;20.30;99.90;;;;;;5040735;28;20087;-73
2023/09/02 08:46:58;;;;;;;12.50;9.32;;;20.40;99.90;;;;;;5048419;28;20021;-73
2023/09/02 08:49:24;;;;;;;13.90;9.35;;;20.50;99.90;;;;;;5040624;28;20025;-73
2023/09/02 08:51:50;;;;;;;10.25;9.13;;;20.60;99.90;;;;;;5040761;28;20384;-73
2023/09/02 08:54:17;;;;;;;15.07;8.57;;;20.60;99.90;;;;;;5044616;28;20394;-74
2023/09/02 08:56:44;;;;;;;7.75;6.95;;;20.70;99.90;;;;;;5040002;28;20022;-72
2023/09/02 08:59:10;;;;;;;11.40;8.45;;;20.90;99.90;;;;;;5045870;28;20473;-72
2023/09/02 09:01:43;;;;;;;12.95;9.25;;;21.00;99.90;;;;;;5046141;28;20036;-72
2023/09/02 09:04:14;;;;;;;12.75;8.93;;;21.10;99.90;;;;;;5051129;28;20025;-73
2023/09/02 09:06:42;;;;;;;10.27;7.53;;;21.00;99.90;;;;;;5043883;28;20064;-73
2023/09/02 09:09:10;;;;;;;11.77;8.18;;;21.00;99.90;;;;;;5043905;28;20389;-73
2023/09/02 09:11:42;;;;;;;11.30;8.35;;;21.00;99.90;;;;;;5040718;28;20505;-74
2023/09/02 09:14:30;;;;;;;11.38;8.00;;;21.00;99.90;;;;;;5042899;28;20124;-74
2023/09/02 09:16:56;;;;;;;8.85;7.00;;;21.10;99.90;;;;;;5047254;28;20497;-74
2023/09/02 09:19:24;;;;;;;9.40;7.40;;;21.30;99.90;;;;;;5037634;28;20428;-72
2023/09/02 09:21:50;;;;;;;9.60;6.40;;;21.40;99.90;;;;;;5046744;28;20033;-74
2023/09/02 09:24:16;;;;;;;9.05;6.15;;;21.70;99.90;;;;;;5039660;28;20120;-73
2023/09/02 09:26:43;;;;;;;7.63;5.70;;;21.80;99.90;;;;;;5042316;28;20017;-72
2023/09/02 09:29:16;;;;;;;8.15;5.97;;;21.90;99.90;;;;;;5042926;28;20515;-72
2023/09/02 09:31:42;;;;;;;8.48;7.25;;;22.00;99.90;;;;;;5044819;28;20589;-73
2023/09/02 09:34:09;;;;;;;8.35;5.95;;;22.00;99.90;;;;;;5040248;28;20025;-72
2023/09/02 09:36:34;;;;;;;7.90;6.15;;;22.00;99.90;;;;;;5044072;28;20035;-73
2023/09/02 09:39:02;;;;;;;8.63;6.10;;;22.00;99.90;;;;;;5043828;28;20400;-73
2023/09/02 09:41:28;;;;;;;9.13;6.13;;;22.10;99.90;;;;;;5044802;28;20478;-74
2023/09/02 09:44:14;;;;;;;8.45;5.80;;;22.20;99.90;;;;;;5041688;28;20033;-72
2023/09/02 09:46:43;;;;;;;9.63;7.05;;;22.20;99.90;;;;;;5041812;28;20100;-72
2023/09/02 09:49:25;;;;;;;8.40;5.95;;;22.30;99.90;;;;;;5039884;28;20074;-72
2023/09/02 09:52:01;;;;;;;9.45;6.03;;;22.40;99.90;;;;;;5047370;28;20036;-72
2023/09/02 09:54:50;;;;;;;12.25;5.28;;;22.50;99.90;;;;;;5038594;28;20032;-74
2023/09/02 09:57:38;;;;;;;8.32;6.00;;;22.50;99.90;;;;;;5045538;28;20024;-73
2023/09/02 10:00:07;;;;;;;6.32;5.32;;;22.30;99.90;;;;;;5039381;28;20025;-74
2023/09/02 10:02:33;;;;;;;6.80;5.47;;;22.50;99.90;;;;;;5041788;28;20024;-73
2023/09/02 10:05:01;;;;;;;8.93;5.05;;;22.60;99.90;;;;;;5039835;28;20037;-72
2023/09/02 10:07:30;;;;;;;8.13;4.53;;;22.50;99.90;;;;;;5039909;28;20041;-72
2023/09/02 10:09:59;;;;;;;9.70;5.13;;;22.50;99.90;;;;;;5051129;28;20021;-70
2023/09/02 10:12:25;;;;;;;6.85;5.10;;;22.60;99.90;;;;;;5040547;28;20036;-70
2023/09/02 10:14:51;;;;;;;5.57;5.00;;;22.80;99.90;;;;;;5040826;28;20024;-70
2023/09/02 10:17:18;;;;;;;5.35;4.43;;;23.00;99.90;;;;;;5033984;28;20049;-72
2023/09/02 10:19:45;;;;;;;5.43;4.53;;;23.00;99.90;;;;;;5041994;28;20057;-70
2023/09/02 10:22:19;;;;;;;5.93;5.30;;;22.80;99.90;;;;;;5040037;28;20028;-70
2023/09/02 10:25:05;;;;;;;4.97;4.53;;;22.90;99.90;;;;;;5040141;28;20493;-71
2023/09/02 10:27:35;;;;;;;6.05;4.30;;;23.00;99.90;;;;;;5038183;28;20644;-73
2023/09/02 10:30:02;;;;;;;7.85;4.40;;;23.00;99.90;;;;;;5043768;28;20450;-74
2023/09/02 10:33:06;;;;;;;5.82;4.65;;;22.90;99.90;;;;;;5037706;28;20032;-73
2023/09/02 10:35:34;;;;;;;6.88;3.85;;;22.90;99.90;;;;;;5041935;28;20058;-72
2023/09/02 10:38:03;;;;;;;5.35;4.63;;;22.90;99.90;;;;;;5040218;28;20028;-73
2023/09/02 10:40:40;;;;;;;6.25;4.93;;;23.00;99.90;;;;;;5043812;28;20040;-73
2023/09/02 10:43:07;;;;;;;7.90;5.07;;;23.10;99.90;;;;;;5052745;28;20029;-74
2023/09/02 10:45:33;;;;;;;6.28;4.75;;;23.20;99.90;;;;;;5048992;28;20037;-71
2023/09/02 10:48:00;;;;;;;8.27;5.38;;;23.30;99.90;;;;;;5054612;28;20031;-71
2023/09/02 10:50:26;;;;;;;6.53;4.70;;;23.40;99.90;;;;;;5054764;28;20052;-72
2023/09/02 10:52:54;;;;;;;5.72;5.13;;;23.50;99.90;;;;;;5048300;28;20471;-71
2023/09/02 10:55:21;;;;;;;6.28;3.70;;;23.60;99.90;;;;;;5044213;28;20056;-71
2023/09/02 10:57:51;;;;;;;5.03;4.53;;;23.60;99.90;;;;;;5036958;28;20021;-71
2023/09/02 11:00:22;;;;;;;4.45;4.05;;;23.60;99.90;;;;;;5046308;28;20033;-72
2023/09/02 11:02:53;;;;;;;5.57;3.85;;;23.60;99.90;;;;;;5050759;28;20028;-72
2023/09/02 11:05:23;;;;;;;6.18;3.90;;;23.60;99.90;;;;;;5041131;28;20033;-72
2023/09/02 11:07:49;;;;;;;8.25;4.05;;;23.80;99.90;;;;;;5041011;28;20060;-72
2023/09/02 11:10:16;;;;;;;4.13;3.47;;;23.90;99.90;;;;;;5041693;28;20025;-72
2023/09/02 11:13:00;;;;;;;6.63;3.65;;;23.90;99.90;;;;;;5049163;28;20470;-70
2023/09/02 11:15:30;;;;;;;5.82;4.18;;;23.90;99.90;;;;;;5049324;28;20183;-72
2023/09/02 11:17:56;;;;;;;5.55;4.88;;;24.10;99.90;;;;;;5047312;28;20018;-72
2023/09/02 11:20:25;;;;;;;7.28;4.50;;;24.30;99.90;;;;;;5042179;28;20098;-72
2023/09/02 11:23:02;;;;;;;4.97;4.43;;;24.50;99.90;;;;;;5039753;28;20028;-72
2023/09/02 11:25:42;;;;;;;7.03;4.70;;;24.50;99.90;;;;;;5043589;28;20042;-73
2023/09/02 11:28:16;;;;;;;5.35;4.72;;;24.50;99.90;;;;;;5043698;28;20043;-72
2023/09/02 11:31:00;;;;;;;5.57;4.13;;;24.40;99.90;;;;;;5044265;28;20112;-72
2023/09/02 11:33:26;;;;;;;7.53;3.65;;;24.60;99.90;;;;;;5054651;28;20032;-72
2023/09/02 11:35:53;;;;;;;3.88;3.45;;;24.70;99.90;;;;;;5047413;28;20033;-73
2023/09/02 11:38:19;;;;;;;5.60;3.80;;;24.80;99.90;;;;;;5046724;28;20029;-73
2023/09/02 11:40:46;;;;;;;4.32;3.92;;;24.80;99.90;;;;;;5039271;28;20029;-73
2023/09/02 11:43:18;;;;;;;6.07;3.70;;;24.80;99.90;;;;;;5039064;28;20025;-72
2023/09/02 11:45:45;;;;;;;4.03;3.50;;;24.60;99.90;;;;;;5045893;28;20036;-73
2023/09/02 11:48:11;;;;;;;5.20;3.08;;;24.60;99.90;;;;;;5045012;28;20021;-73
2023/09/02 11:50:40;;;;;;;4.28;3.85;;;24.60;99.90;;;;;;5043559;28;20474;-73
2023/09/02 11:53:06;;;;;;;5.95;4.55;;;24.60;99.90;;;;;;5051634;28;20055;-73
2023/09/02 11:55:32;;;;;;;8.52;4.45;;;24.50;99.90;;;;;;5043986;28;20108;-73
2023/09/02 11:58:05;;;;;;;5.78;4.70;;;24.50;99.90;;;;;;5044136;28;20159;-73
2023/09/02 12:00:31;;;;;;;8.85;5.35;;;24.40;99.90;;;;;;5043311;28;20025;-73
2023/09/02 12:02:59;;;;;;;5.28;4.45;;;24.30;99.90;;;;;;5044690;28;20519;-73
2023/09/02 12:05:25;;;;;;;5.88;5.38;;;24.30;99.90;;;;;;5043493;28;20128;-73
2023/09/02 12:07:51;;;;;;;6.30;5.70;;;24.30;99.90;;;;;;5041220;28;20162;-72
2023/09/02 12:10:18;;;;;;;6.25;5.18;;;24.30;99.90;;;;;;5051429;28;20130;-72
2023/09/02 12:12:48;;;;;;;6.18;4.97;;;24.30;99.90;;;;;;5045479;28;20025;-73
2023/09/02 12:15:18;;;;;;;7.65;6.05;;;24.30;99.90;;;;;;5039557;28;20024;-73
2023/09/02 12:17:45;;;;;;;5.00;4.20;;;24.20;99.90;;;;;;5035900;28;20482;-73
2023/09/02 12:20:13;;;;;;;9.20;4.78;;;24.10;99.90;;;;;;5074862;28;20072;-73
2023/09/02 12:22:43;;;;;;;5.15;4.30;;;24.20;99.90;;;;;;5047359;28;20013;-73
2023/09/02 12:25:14;;;;;;;7.20;4.40;;;24.10;99.90;;;;;;5039533;28;20033;-72
2023/09/02 12:27:42;;;;;;;4.53;4.03;;;24.30;99.90;;;;;;5047989;28;20036;-72
2023/09/02 12:30:09;;;;;;;4.43;3.40;;;24.30;99.90;;;;;;5046937;28;20021;-73
2023/09/02 12:32:35;;;;;;;8.05;3.35;;;24.30;99.90;;;;;;5043714;28;20025;-73
2023/09/02 12:35:07;;;;;;;6.05;4.38;;;24.60;99.90;;;;;;5043286;28;20027;-73
2023/09/02 12:37:33;;;;;;;3.70;3.10;;;24.80;99.90;;;;;;5040443;28;20073;-73
2023/09/02 12:40:11;;;;;;;5.18;3.33;;;24.90;99.90;;;;;;5042861;28;20378;-72
2023/09/02 12:42:37;;;;;;;6.45;4.32;;;25.00;99.90;;;;;;5051798;28;20029;-72
2023/09/02 12:45:07;;;;;;;3.90;3.50;;;24.80;99.90;;;;;;5042772;28;20040;-74